sensor_id;sensor_type;location;lat;lon;timestamp;P1;durP1;ratioP1;P2;durP2;ratioP2
75496;SDS011;64074;47.540;19.072;2023-05-07T00:02:43;9.48;;;7.85;;
75496;SDS011;64074;47.540;19.072;2023-05-07T00:05:47;14.80;;;8.20;;
75496;SDS011;64074;47.540;19.072;2023-05-07T00:08:56;11.10;;;8.27;;
75496;SDS011;64074;47.540;19.072;2023-05-07T00:12:01;10.13;;;8.40;;
75496;SDS011;64074;47.540;19.072;2023-05-07T00:15:12;10.15;;;8.40;;
75496;SDS011;64074;47.540;19.072;2023-05-07T00:18:26;11.40;;;8.57;;
75496;SDS011;64074;47.540;19.072;2023-05-07T00:21:50;12.27;;;9.03;;
75496;SDS011;64074;47.540;19.072;2023-05-07T00:25:09;11.63;;;8.93;;
75496;SDS011;64074;47.540;19.072;2023-05-07T00:28:33;14.02;;;9.93;;
75496;SDS011;64074;47.540;19.072;2023-05-07T00:31:57;13.35;;;10.45;;
75496;SDS011;64074;47.540;19.072;2023-05-07T00:35:20;12.85;;;10.07;;
75496;SDS011;64074;47.540;19.072;2023-05-07T00:38:42;15.17;;;11.07;;
75496;SDS011;64074;47.540;19.072;2023-05-07T00:42:04;14.45;;;10.75;;
75496;SDS011;64074;47.540;19.072;2023-05-07T00:45:15;11.93;;;10.32;;
75496;SDS011;64074;47.540;19.072;2023-05-07T00:48:46;15.32;;;10.10;;
75496;SDS011;64074;47.540;19.072;2023-05-07T00:52:13;14.50;;;11.90;;
75496;SDS011;64074;47.540;19.072;2023-05-07T00:55:26;16.10;;;11.93;;
75496;SDS011;64074;47.540;19.072;2023-05-07T00:58:52;14.90;;;11.60;;
75496;SDS011;64074;47.540;19.072;2023-05-07T01:02:17;15.45;;;11.45;;
75496;SDS011;64074;47.540;19.072;2023-05-07T01:05:37;16.23;;;12.20;;
75496;SDS011;64074;47.540;19.072;2023-05-07T01:08:46;15.63;;;12.32;;
75496;SDS011;64074;47.540;19.072;2023-05-07T01:11:50;18.33;;;12.77;;
75496;SDS011;64074;47.540;19.072;2023-05-07T01:15:01;18.55;;;13.05;;
75496;SDS011;64074;47.540;19.072;2023-05-07T01:18:23;14.93;;;12.10;;
75496;SDS011;64074;47.540;19.072;2023-05-07T01:21:36;14.65;;;11.90;;
75496;SDS011;64074;47.540;19.072;2023-05-07T01:24:55;15.05;;;11.95;;
75496;SDS011;64074;47.540;19.072;2023-05-07T01:28:07;16.20;;;12.50;;
75496;SDS011;64074;47.540;19.072;2023-05-07T01:31:13;18.50;;;13.23;;
75496;SDS011;64074;47.540;19.072;2023-05-07T01:34:21;15.73;;;11.95;;
75496;SDS011;64074;47.540;19.072;2023-05-07T01:37:26;15.80;;;12.18;;
75496;SDS011;64074;47.540;19.072;2023-05-07T01:40:31;15.40;;;11.68;;
75496;SDS011;64074;47.540;19.072;2023-05-07T01:43:44;16.77;;;10.57;;
75496;SDS011;64074;47.540;19.072;2023-05-07T01:46:55;16.27;;;11.38;;
75496;SDS011;64074;47.540;19.072;2023-05-07T01:50:07;14.57;;;11.07;;
75496;SDS011;64074;47.540;19.072;2023-05-07T01:53:18;17.40;;;11.35;;
75496;SDS011;64074;47.540;19.072;2023-05-07T01:56:25;13.27;;;10.75;;
75496;SDS011;64074;47.540;19.072;2023-05-07T01:59:35;13.87;;;11.00;;
75496;SDS011;64074;47.540;19.072;2023-05-07T02:02:41;14.10;;;10.93;;
75496;SDS011;64074;47.540;19.072;2023-05-07T02:06:00;15.00;;;11.32;;
75496;SDS011;64074;47.540;19.072;2023-05-07T02:09:13;15.32;;;10.50;;
75496;SDS011;64074;47.540;19.072;2023-05-07T02:12:29;14.40;;;10.85;;
75496;SDS011;64074;47.540;19.072;2023-05-07T02:15:43;14.33;;;10.73;;
75496;SDS011;64074;47.540;19.072;2023-05-07T02:19:05;15.23;;;11.80;;
75496;SDS011;64074;47.540;19.072;2023-05-07T02:22:23;15.05;;;11.15;;
75496;SDS011;64074;47.540;19.072;2023-05-07T02:25:41;14.07;;;11.18;;
75496;SDS011;64074;47.540;19.072;2023-05-07T02:29:09;14.82;;;10.32;;
75496;SDS011;64074;47.540;19.072;2023-05-07T02:32:38;13.77;;;10.57;;
75496;SDS011;64074;47.540;19.072;2023-05-07T02:36:05;13.73;;;10.18;;
75496;SDS011;64074;47.540;19.072;2023-05-07T02:39:38;12.63;;;10.30;;
75496;SDS011;64074;47.540;19.072;2023-05-07T02:42:41;14.13;;;10.60;;
75496;SDS011;64074;47.540;19.072;2023-05-07T02:46:04;13.50;;;10.65;;
75496;SDS011;64074;47.540;19.072;2023-05-07T02:49:33;14.00;;;9.83;;
75496;SDS011;64074;47.540;19.072;2023-05-07T02:52:54;13.13;;;10.10;;
75496;SDS011;64074;47.540;19.072;2023-05-07T02:56:13;14.23;;;9.80;;
75496;SDS011;64074;47.540;19.072;2023-05-07T02:59:26;13.60;;;9.90;;
75496;SDS011;64074;47.540;19.072;2023-05-07T03:02:36;12.98;;;9.65;;
75496;SDS011;64074;47.540;19.072;2023-05-07T03:05:45;13.90;;;10.80;;
75496;SDS011;64074;47.540;19.072;2023-05-07T03:08:56;13.10;;;10.40;;
75496;SDS011;64074;47.540;19.072;2023-05-07T03:12:12;12.82;;;9.82;;
75496;SDS011;64074;47.540;19.072;2023-05-07T03:15:33;13.45;;;9.95;;
75496;SDS011;64074;47.540;19.072;2023-05-07T03:18:49;12.57;;;9.68;;
75496;SDS011;64074;47.540;19.072;2023-05-07T03:22:16;13.10;;;9.23;;
75496;SDS011;64074;47.540;19.072;2023-05-07T03:25:43;11.60;;;9.15;;
75496;SDS011;64074;47.540;19.072;2023-05-07T03:28:54;11.35;;;8.40;;
75496;SDS011;64074;47.540;19.072;2023-05-07T03:32:10;12.52;;;8.52;;
75496;SDS011;64074;47.540;19.072;2023-05-07T03:35:14;10.95;;;7.65;;
75496;SDS011;64074;47.540;19.072;2023-05-07T03:38:17;10.20;;;7.67;;
75496;SDS011;64074;47.540;19.072;2023-05-07T03:41:25;11.25;;;8.18;;
75496;SDS011;64074;47.540;19.072;2023-05-07T03:44:34;12.70;;;8.82;;
75496;SDS011;64074;47.540;19.072;2023-05-07T03:47:44;12.05;;;8.63;;
75496;SDS011;64074;47.540;19.072;2023-05-07T03:50:58;11.48;;;8.65;;
75496;SDS011;64074;47.540;19.072;2023-05-07T03:54:15;13.37;;;9.33;;
75496;SDS011;64074;47.540;19.072;2023-05-07T03:57:43;13.65;;;9.07;;
75496;SDS011;64074;47.540;19.072;2023-05-07T04:00:50;12.55;;;9.77;;
75496;SDS011;64074;47.540;19.072;2023-05-07T04:04:01;11.45;;;9.38;;
75496;SDS011;64074;47.540;19.072;2023-05-07T04:07:08;12.80;;;9.48;;
75496;SDS011;64074;47.540;19.072;2023-05-07T04:10:16;13.03;;;9.40;;
75496;SDS011;64074;47.540;19.072;2023-05-07T04:13:23;13.35;;;9.90;;
75496;SDS011;64074;47.540;19.072;2023-05-07T04:16:35;16.27;;;10.15;;
75496;SDS011;64074;47.540;19.072;2023-05-07T04:19:45;14.88;;;10.15;;
75496;SDS011;64074;47.540;19.072;2023-05-07T04:22:56;14.25;;;10.07;;
75496;SDS011;64074;47.540;19.072;2023-05-07T04:26:07;11.90;;;9.63;;
75496;SDS011;64074;47.540;19.072;2023-05-07T04:29:16;13.20;;;10.25;;
75496;SDS011;64074;47.540;19.072;2023-05-07T04:32:26;16.65;;;10.68;;
75496;SDS011;64074;47.540;19.072;2023-05-07T04:35:46;13.00;;;10.02;;
75496;SDS011;64074;47.540;19.072;2023-05-07T04:39:02;14.48;;;10.45;;
75496;SDS011;64074;47.540;19.072;2023-05-07T04:42:06;12.33;;;9.77;;
75496;SDS011;64074;47.540;19.072;2023-05-07T04:45:12;13.75;;;10.55;;
75496;SDS011;64074;47.540;19.072;2023-05-07T04:48:25;13.77;;;10.00;;
75496;SDS011;64074;47.540;19.072;2023-05-07T04:51:47;14.50;;;10.65;;
75496;SDS011;64074;47.540;19.072;2023-05-07T04:55:08;13.18;;;10.38;;
75496;SDS011;64074;47.540;19.072;2023-05-07T04:58:29;14.67;;;10.63;;
75496;SDS011;64074;47.540;19.072;2023-05-07T05:01:51;13.32;;;10.60;;
75496;SDS011;64074;47.540;19.072;2023-05-07T05:05:13;14.00;;;10.93;;
75496;SDS011;64074;47.540;19.072;2023-05-07T05:08:36;13.70;;;10.35;;
75496;SDS011;64074;47.540;19.072;2023-05-07T05:11:58;12.85;;;10.32;;
75496;SDS011;64074;47.540;19.072;2023-05-07T05:15:18;13.83;;;10.77;;
75496;SDS011;64074;47.540;19.072;2023-05-07T05:18:43;14.80;;;11.30;;
75496;SDS011;64074;47.540;19.072;2023-05-07T05:22:06;13.80;;;11.25;;
75496;SDS011;64074;47.540;19.072;2023-05-07T05:25:26;15.88;;;12.00;;
75496;SDS011;64074;47.540;19.072;2023-05-07T05:28:51;15.05;;;11.45;;
75496;SDS011;64074;47.540;19.072;2023-05-07T05:32:13;14.30;;;10.83;;
75496;SDS011;64074;47.540;19.072;2023-05-07T05:35:30;13.18;;;10.45;;
75496;SDS011;64074;47.540;19.072;2023-05-07T05:38:39;12.75;;;10.38;;
75496;SDS011;64074;47.540;19.072;2023-05-07T05:41:50;13.98;;;10.98;;
75496;SDS011;64074;47.540;19.072;2023-05-07T05:44:59;12.82;;;10.40;;
75496;SDS011;64074;47.540;19.072;2023-05-07T05:48:07;11.90;;;9.53;;
75496;SDS011;64074;47.540;19.072;2023-05-07T05:51:17;10.75;;;9.30;;
75496;SDS011;64074;47.540;19.072;2023-05-07T05:54:34;13.02;;;9.27;;
75496;SDS011;64074;47.540;19.072;2023-05-07T05:57:42;11.55;;;9.75;;
75496;SDS011;64074;47.540;19.072;2023-05-07T06:00:49;12.88;;;10.52;;
75496;SDS011;64074;47.540;19.072;2023-05-07T06:04:06;12.70;;;9.93;;
75496;SDS011;64074;47.540;19.072;2023-05-07T06:07:26;12.27;;;9.60;;
75496;SDS011;64074;47.540;19.072;2023-05-07T06:10:48;12.32;;;10.00;;
75496;SDS011;64074;47.540;19.072;2023-05-07T06:14:09;12.25;;;9.93;;
75496;SDS011;64074;47.540;19.072;2023-05-07T06:17:17;12.88;;;9.65;;
75496;SDS011;64074;47.540;19.072;2023-05-07T06:20:26;13.33;;;10.27;;
75496;SDS011;64074;47.540;19.072;2023-05-07T06:23:30;13.25;;;10.75;;
75496;SDS011;64074;47.540;19.072;2023-05-07T06:26:40;14.52;;;10.73;;
75496;SDS011;64074;47.540;19.072;2023-05-07T06:29:50;16.25;;;11.95;;
75496;SDS011;64074;47.540;19.072;2023-05-07T06:33:07;13.95;;;11.45;;
75496;SDS011;64074;47.540;19.072;2023-05-07T06:36:18;15.23;;;12.10;;
75496;SDS011;64074;47.540;19.072;2023-05-07T06:39:33;16.55;;;11.18;;
75496;SDS011;64074;47.540;19.072;2023-05-07T06:42:47;14.40;;;11.43;;
75496;SDS011;64074;47.540;19.072;2023-05-07T06:46:04;14.00;;;10.50;;
75496;SDS011;64074;47.540;19.072;2023-05-07T06:49:10;13.27;;;10.80;;
75496;SDS011;64074;47.540;19.072;2023-05-07T06:52:24;12.03;;;9.80;;
75496;SDS011;64074;47.540;19.072;2023-05-07T06:55:39;12.10;;;9.13;;
75496;SDS011;64074;47.540;19.072;2023-05-07T06:58:54;12.13;;;10.30;;
75496;SDS011;64074;47.540;19.072;2023-05-07T07:02:23;13.65;;;10.00;;
75496;SDS011;64074;47.540;19.072;2023-05-07T07:05:52;12.55;;;10.07;;
75496;SDS011;64074;47.540;19.072;2023-05-07T07:09:12;12.70;;;10.13;;
75496;SDS011;64074;47.540;19.072;2023-05-07T07:12:35;11.05;;;9.52;;
75496;SDS011;64074;47.540;19.072;2023-05-07T07:15:57;11.77;;;8.45;;
75496;SDS011;64074;47.540;19.072;2023-05-07T07:19:16;9.65;;;8.45;;
75496;SDS011;64074;47.540;19.072;2023-05-07T07:22:29;11.60;;;8.77;;
75496;SDS011;64074;47.540;19.072;2023-05-07T07:26:01;10.00;;;8.40;;
75496;SDS011;64074;47.540;19.072;2023-05-07T07:29:17;11.18;;;9.50;;
75496;SDS011;64074;47.540;19.072;2023-05-07T07:32:29;12.02;;;9.23;;
75496;SDS011;64074;47.540;19.072;2023-05-07T07:36:06;11.32;;;8.75;;
75496;SDS011;64074;47.540;19.072;2023-05-07T07:39:38;10.55;;;8.77;;
75496;SDS011;64074;47.540;19.072;2023-05-07T07:42:58;10.30;;;8.60;;
75496;SDS011;64074;47.540;19.072;2023-05-07T07:46:16;9.52;;;8.52;;
75496;SDS011;64074;47.540;19.072;2023-05-07T07:49:36;9.63;;;7.50;;
75496;SDS011;64074;47.540;19.072;2023-05-07T07:53:00;8.55;;;7.53;;
75496;SDS011;64074;47.540;19.072;2023-05-07T07:56:27;8.57;;;7.45;;
75496;SDS011;64074;47.540;19.072;2023-05-07T07:59:48;8.57;;;6.50;;
75496;SDS011;64074;47.540;19.072;2023-05-07T08:03:12;6.78;;;5.97;;
75496;SDS011;64074;47.540;19.072;2023-05-07T08:06:35;7.45;;;6.63;;
75496;SDS011;64074;47.540;19.072;2023-05-07T08:09:44;6.90;;;5.90;;
75496;SDS011;64074;47.540;19.072;2023-05-07T08:12:52;5.57;;;4.95;;
75496;SDS011;64074;47.540;19.072;2023-05-07T08:16:00;4.90;;;4.40;;
75496;SDS011;64074;47.540;19.072;2023-05-07T08:19:11;4.20;;;3.35;;
75496;SDS011;64074;47.540;19.072;2023-05-07T08:22:21;3.60;;;3.30;;
75496;SDS011;64074;47.540;19.072;2023-05-07T08:25:34;3.63;;;2.63;;
75496;SDS011;64074;47.540;19.072;2023-05-07T08:28:56;2.85;;;1.92;;
75496;SDS011;64074;47.540;19.072;2023-05-07T08:32:12;2.80;;;2.50;;
75496;SDS011;64074;47.540;19.072;2023-05-07T08:35:16;2.75;;;2.20;;
75496;SDS011;64074;47.540;19.072;2023-05-07T08:38:26;2.90;;;2.60;;
75496;SDS011;64074;47.540;19.072;2023-05-07T08:41:34;3.78;;;2.72;;
75496;SDS011;64074;47.540;19.072;2023-05-07T08:44:38;3.28;;;2.97;;
75496;SDS011;64074;47.540;19.072;2023-05-07T08:47:54;2.83;;;2.57;;
75496;SDS011;64074;47.540;19.072;2023-05-07T08:51:17;7.05;;;2.65;;
75496;SDS011;64074;47.540;19.072;2023-05-07T08:54:37;4.25;;;2.60;;
75496;SDS011;64074;47.540;19.072;2023-05-07T08:57:58;1.58;;;1.48;;
75496;SDS011;64074;47.540;19.072;2023-05-07T09:01:23;2.42;;;2.22;;
75496;SDS011;64074;47.540;19.072;2023-05-07T09:04:35;2.07;;;1.90;;
75496;SDS011;64074;47.540;19.072;2023-05-07T09:07:39;1.80;;;1.35;;
75496;SDS011;64074;47.540;19.072;2023-05-07T09:10:51;1.92;;;1.83;;
75496;SDS011;64074;47.540;19.072;2023-05-07T09:14:07;2.60;;;2.40;;
75496;SDS011;64074;47.540;19.072;2023-05-07T09:17:26;3.00;;;2.58;;
75496;SDS011;64074;47.540;19.072;2023-05-07T09:20:42;2.80;;;2.60;;
75496;SDS011;64074;47.540;19.072;2023-05-07T09:23:52;2.78;;;2.50;;
75496;SDS011;64074;47.540;19.072;2023-05-07T09:27:04;3.50;;;2.90;;
75496;SDS011;64074;47.540;19.072;2023-05-07T09:30:13;4.10;;;3.33;;
75496;SDS011;64074;47.540;19.072;2023-05-07T09:33:24;3.33;;;3.03;;
75496;SDS011;64074;47.540;19.072;2023-05-07T09:36:45;3.20;;;2.90;;
75496;SDS011;64074;47.540;19.072;2023-05-07T09:39:55;3.70;;;3.00;;
75496;SDS011;64074;47.540;19.072;2023-05-07T09:43:10;5.53;;;3.53;;
75496;SDS011;64074;47.540;19.072;2023-05-07T09:46:47;3.83;;;3.47;;
75496;SDS011;64074;47.540;19.072;2023-05-07T09:50:18;4.40;;;3.47;;
75496;SDS011;64074;47.540;19.072;2023-05-07T09:53:38;4.00;;;3.60;;
75496;SDS011;64074;47.540;19.072;2023-05-07T09:57:01;4.40;;;3.50;;
75496;SDS011;64074;47.540;19.072;2023-05-07T10:00:24;4.30;;;3.90;;
75496;SDS011;64074;47.540;19.072;2023-05-07T10:03:42;4.10;;;3.65;;
75496;SDS011;64074;47.540;19.072;2023-05-07T10:06:53;5.25;;;3.50;;
75496;SDS011;64074;47.540;19.072;2023-05-07T10:10:26;4.30;;;3.17;;
75496;SDS011;64074;47.540;19.072;2023-05-07T10:13:41;3.80;;;3.40;;
75496;SDS011;64074;47.540;19.072;2023-05-07T10:17:10;4.15;;;3.53;;
75496;SDS011;64074;47.540;19.072;2023-05-07T10:20:34;7.40;;;3.70;;
75496;SDS011;64074;47.540;19.072;2023-05-07T10:24:06;3.88;;;3.50;;
75496;SDS011;64074;47.540;19.072;2023-05-07T10:27:24;5.43;;;3.80;;
75496;SDS011;64074;47.540;19.072;2023-05-07T10:30:48;6.95;;;3.70;;
75496;SDS011;64074;47.540;19.072;2023-05-07T10:34:20;4.38;;;3.45;;
75496;SDS011;64074;47.540;19.072;2023-05-07T10:37:30;3.97;;;3.40;;
75496;SDS011;64074;47.540;19.072;2023-05-07T10:40:40;3.85;;;3.55;;
75496;SDS011;64074;47.540;19.072;2023-05-07T10:44:07;3.67;;;3.27;;
75496;SDS011;64074;47.540;19.072;2023-05-07T10:47:20;3.53;;;3.22;;
75496;SDS011;64074;47.540;19.072;2023-05-07T10:50:50;4.32;;;3.63;;
75496;SDS011;64074;47.540;19.072;2023-05-07T10:54:43;3.92;;;3.60;;
75496;SDS011;64074;47.540;19.072;2023-05-07T10:57:54;5.20;;;4.70;;
75496;SDS011;64074;47.540;19.072;2023-05-07T11:01:05;5.00;;;4.50;;
75496;SDS011;64074;47.540;19.072;2023-05-07T11:04:20;5.28;;;4.78;;
75496;SDS011;64074;47.540;19.072;2023-05-07T11:07:54;4.82;;;4.43;;
75496;SDS011;64074;47.540;19.072;2023-05-07T11:11:03;6.50;;;4.28;;
75496;SDS011;64074;47.540;19.072;2023-05-07T11:18:00;5.40;;;4.20;;
75496;SDS011;64074;47.540;19.072;2023-05-07T11:21:31;7.30;;;4.55;;
75496;SDS011;64074;47.540;19.072;2023-05-07T11:24:55;5.20;;;4.72;;
75496;SDS011;64074;47.540;19.072;2023-05-07T11:28:04;4.80;;;4.30;;
75496;SDS011;64074;47.540;19.072;2023-05-07T11:31:13;4.60;;;4.20;;
75496;SDS011;64074;47.540;19.072;2023-05-07T11:34:24;6.57;;;4.27;;
75496;SDS011;64074;47.540;19.072;2023-05-07T11:37:34;4.50;;;4.10;;
75496;SDS011;64074;47.540;19.072;2023-05-07T11:40:52;4.35;;;3.95;;
75496;SDS011;64074;47.540;19.072;2023-05-07T11:43:59;4.45;;;4.05;;
75496;SDS011;64074;47.540;19.072;2023-05-07T11:47:02;4.20;;;3.80;;
75496;SDS011;64074;47.540;19.072;2023-05-07T11:50:16;4.00;;;3.70;;
75496;SDS011;64074;47.540;19.072;2023-05-07T11:53:42;4.85;;;3.80;;
75496;SDS011;64074;47.540;19.072;2023-05-07T11:56:53;4.10;;;3.65;;
75496;SDS011;64074;47.540;19.072;2023-05-07T12:00:05;3.60;;;3.30;;
75496;SDS011;64074;47.540;19.072;2023-05-07T12:03:22;7.22;;;4.45;;
75496;SDS011;64074;47.540;19.072;2023-05-07T12:06:53;3.97;;;3.53;;
75496;SDS011;64074;47.540;19.072;2023-05-07T12:10:12;4.10;;;3.70;;
75496;SDS011;64074;47.540;19.072;2023-05-07T12:13:41;4.30;;;3.28;;
75496;SDS011;64074;47.540;19.072;2023-05-07T12:17:12;4.85;;;3.50;;
75496;SDS011;64074;47.540;19.072;2023-05-07T12:20:30;4.20;;;3.90;;
75496;SDS011;64074;47.540;19.072;2023-05-07T12:23:40;3.53;;;3.17;;
75496;SDS011;64074;47.540;19.072;2023-05-07T12:26:56;3.70;;;3.40;;
75496;SDS011;64074;47.540;19.072;2023-05-07T12:30:12;4.93;;;4.00;;
75496;SDS011;64074;47.540;19.072;2023-05-07T12:33:29;4.50;;;3.53;;
75496;SDS011;64074;47.540;19.072;2023-05-07T12:36:38;3.50;;;3.28;;
75496;SDS011;64074;47.540;19.072;2023-05-07T12:39:48;4.30;;;3.90;;
75496;SDS011;64074;47.540;19.072;2023-05-07T12:42:59;4.78;;;4.25;;
75496;SDS011;64074;47.540;19.072;2023-05-07T12:46:26;4.35;;;3.80;;
75496;SDS011;64074;47.540;19.072;2023-05-07T12:49:50;4.40;;;4.00;;
75496;SDS011;64074;47.540;19.072;2023-05-07T12:53:04;4.57;;;4.18;;
75496;SDS011;64074;47.540;19.072;2023-05-07T12:56:15;3.70;;;3.40;;
75496;SDS011;64074;47.540;19.072;2023-05-07T12:59:30;4.10;;;3.70;;
75496;SDS011;64074;47.540;19.072;2023-05-07T13:02:46;4.40;;;4.00;;
75496;SDS011;64074;47.540;19.072;2023-05-07T13:05:57;4.13;;;3.72;;
75496;SDS011;64074;47.540;19.072;2023-05-07T13:09:20;6.30;;;3.75;;
75496;SDS011;64074;47.540;19.072;2023-05-07T13:12:34;5.27;;;3.77;;
75496;SDS011;64074;47.540;19.072;2023-05-07T13:16:02;5.03;;;3.67;;
75496;SDS011;64074;47.540;19.072;2023-05-07T13:19:15;4.20;;;3.90;;
75496;SDS011;64074;47.540;19.072;2023-05-07T13:22:25;4.15;;;3.70;;
75496;SDS011;64074;47.540;19.072;2023-05-07T13:26:06;3.63;;;3.30;;
75496;SDS011;64074;47.540;19.072;2023-05-07T13:29:34;5.47;;;4.47;;
75496;SDS011;64074;47.540;19.072;2023-05-07T13:32:54;5.25;;;4.30;;
75496;SDS011;64074;47.540;19.072;2023-05-07T13:36:09;4.70;;;4.22;;
75496;SDS011;64074;47.540;19.072;2023-05-07T13:39:36;4.63;;;4.20;;
75496;SDS011;64074;47.540;19.072;2023-05-07T13:42:57;4.88;;;4.30;;
75496;SDS011;64074;47.540;19.072;2023-05-07T13:46:16;4.30;;;3.90;;
75496;SDS011;64074;47.540;19.072;2023-05-07T13:49:20;4.20;;;3.90;;
75496;SDS011;64074;47.540;19.072;2023-05-07T13:52:30;4.75;;;4.30;;
75496;SDS011;64074;47.540;19.072;2023-05-07T13:55:39;5.55;;;4.20;;
75496;SDS011;64074;47.540;19.072;2023-05-07T13:58:53;5.63;;;4.80;;
75496;SDS011;64074;47.540;19.072;2023-05-07T14:02:05;5.13;;;4.63;;
75496;SDS011;64074;47.540;19.072;2023-05-07T14:05:09;4.03;;;3.72;;
75496;SDS011;64074;47.540;19.072;2023-05-07T14:08:19;4.68;;;3.80;;
75496;SDS011;64074;47.540;19.072;2023-05-07T14:11:34;3.90;;;3.55;;
75496;SDS011;64074;47.540;19.072;2023-05-07T14:14:48;4.28;;;3.97;;
75496;SDS011;64074;47.540;19.072;2023-05-07T14:17:59;4.10;;;3.80;;
75496;SDS011;64074;47.540;19.072;2023-05-07T14:21:36;3.80;;;3.50;;
75496;SDS011;64074;47.540;19.072;2023-05-07T14:25:00;4.03;;;3.72;;
75496;SDS011;64074;47.540;19.072;2023-05-07T14:28:24;3.28;;;3.08;;
75496;SDS011;64074;47.540;19.072;2023-05-07T14:31:34;3.58;;;3.25;;
75496;SDS011;64074;47.540;19.072;2023-05-07T14:35:03;4.23;;;3.67;;
75496;SDS011;64074;47.540;19.072;2023-05-07T14:38:33;4.18;;;3.78;;
75496;SDS011;64074;47.540;19.072;2023-05-07T14:41:55;5.50;;;3.75;;
75496;SDS011;64074;47.540;19.072;2023-05-07T14:45:17;4.00;;;3.53;;
75496;SDS011;64074;47.540;19.072;2023-05-07T14:48:43;4.90;;;3.75;;
75496;SDS011;64074;47.540;19.072;2023-05-07T14:51:57;3.97;;;3.67;;
75496;SDS011;64074;47.540;19.072;2023-05-07T14:55:03;4.80;;;4.10;;
75496;SDS011;64074;47.540;19.072;2023-05-07T14:58:13;3.97;;;3.67;;
75496;SDS011;64074;47.540;19.072;2023-05-07T15:01:28;4.60;;;4.20;;
75496;SDS011;64074;47.540;19.072;2023-05-07T15:04:42;5.75;;;4.65;;
75496;SDS011;64074;47.540;19.072;2023-05-07T15:07:56;5.00;;;4.50;;
75496;SDS011;64074;47.540;19.072;2023-05-07T15:11:17;5.22;;;4.68;;
75496;SDS011;64074;47.540;19.072;2023-05-07T15:14:36;5.45;;;4.63;;
75496;SDS011;64074;47.540;19.072;2023-05-07T15:18:23;4.88;;;4.38;;
75496;SDS011;64074;47.540;19.072;2023-05-07T15:21:32;5.45;;;4.70;;
75496;SDS011;64074;47.540;19.072;2023-05-07T15:25:01;11.67;;;4.60;;
75496;SDS011;64074;47.540;19.072;2023-05-07T15:28:15;5.57;;;4.20;;
75496;SDS011;64074;47.540;19.072;2023-05-07T15:31:25;5.03;;;4.63;;
75496;SDS011;64074;47.540;19.072;2023-05-07T15:34:48;6.13;;;4.28;;
75496;SDS011;64074;47.540;19.072;2023-05-07T15:38:04;5.63;;;4.07;;
75496;SDS011;64074;47.540;19.072;2023-05-07T15:41:24;4.67;;;3.60;;
75496;SDS011;64074;47.540;19.072;2023-05-07T15:45:00;6.97;;;3.20;;
75496;SDS011;64074;47.540;19.072;2023-05-07T15:48:27;3.38;;;3.08;;
75496;SDS011;64074;47.540;19.072;2023-05-07T15:51:49;3.42;;;2.92;;
75496;SDS011;64074;47.540;19.072;2023-05-07T15:55:10;5.35;;;3.20;;
75496;SDS011;64074;47.540;19.072;2023-05-07T15:58:38;3.10;;;2.80;;
75496;SDS011;64074;47.540;19.072;2023-05-07T16:01:48;3.78;;;2.90;;
75496;SDS011;64074;47.540;19.072;2023-05-07T16:04:51;6.00;;;2.90;;
75496;SDS011;64074;47.540;19.072;2023-05-07T16:08:02;4.47;;;2.10;;
75496;SDS011;64074;47.540;19.072;2023-05-07T16:11:10;3.20;;;2.60;;
75496;SDS011;64074;47.540;19.072;2023-05-07T16:14:17;2.40;;;2.17;;
75496;SDS011;64074;47.540;19.072;2023-05-07T16:17:25;6.38;;;2.38;;
75496;SDS011;64074;47.540;19.072;2023-05-07T16:20:35;2.95;;;2.50;;
75496;SDS011;64074;47.540;19.072;2023-05-07T16:23:44;3.95;;;1.92;;
75496;SDS011;64074;47.540;19.072;2023-05-07T16:26:55;3.58;;;2.38;;
75496;SDS011;64074;47.540;19.072;2023-05-07T16:30:01;2.90;;;2.03;;
75496;SDS011;64074;47.540;19.072;2023-05-07T16:33:08;2.33;;;1.90;;
75496;SDS011;64074;47.540;19.072;2023-05-07T16:36:15;7.35;;;2.30;;
75496;SDS011;64074;47.540;19.072;2023-05-07T16:39:19;3.03;;;1.88;;
75496;SDS011;64074;47.540;19.072;2023-05-07T16:42:22;2.17;;;1.88;;
75496;SDS011;64074;47.540;19.072;2023-05-07T16:45:33;3.27;;;1.87;;
75496;SDS011;64074;47.540;19.072;2023-05-07T16:49:09;3.55;;;1.77;;
75496;SDS011;64074;47.540;19.072;2023-05-07T16:52:33;2.72;;;2.20;;
75496;SDS011;64074;47.540;19.072;2023-05-07T16:55:54;3.13;;;1.95;;
75496;SDS011;64074;47.540;19.072;2023-05-07T16:59:18;3.72;;;2.17;;
75496;SDS011;64074;47.540;19.072;2023-05-07T17:02:40;2.90;;;2.13;;
75496;SDS011;64074;47.540;19.072;2023-05-07T17:06:02;3.55;;;2.38;;
75496;SDS011;64074;47.540;19.072;2023-05-07T17:09:27;3.67;;;2.65;;
75496;SDS011;64074;47.540;19.072;2023-05-07T17:12:30;3.83;;;2.15;;
75496;SDS011;64074;47.540;19.072;2023-05-07T17:15:38;2.70;;;2.10;;
75496;SDS011;64074;47.540;19.072;2023-05-07T17:18:52;3.70;;;2.20;;
75496;SDS011;64074;47.540;19.072;2023-05-07T17:22:06;3.42;;;2.20;;
75496;SDS011;64074;47.540;19.072;2023-05-07T17:25:17;2.53;;;2.10;;
75496;SDS011;64074;47.540;19.072;2023-05-07T17:28:30;3.58;;;2.22;;
75496;SDS011;64074;47.540;19.072;2023-05-07T17:31:34;7.00;;;1.90;;
75496;SDS011;64074;47.540;19.072;2023-05-07T17:34:43;3.33;;;1.90;;
75496;SDS011;64074;47.540;19.072;2023-05-07T17:37:50;2.10;;;1.90;;
75496;SDS011;64074;47.540;19.072;2023-05-07T17:40:54;2.40;;;2.20;;
75496;SDS011;64074;47.540;19.072;2023-05-07T17:44:03;3.53;;;1.90;;
75496;SDS011;64074;47.540;19.072;2023-05-07T17:47:12;3.92;;;1.80;;
75496;SDS011;64074;47.540;19.072;2023-05-07T17:50:28;5.10;;;2.10;;
75496;SDS011;64074;47.540;19.072;2023-05-07T17:53:58;3.30;;;2.33;;
75496;SDS011;64074;47.540;19.072;2023-05-07T17:57:09;4.28;;;2.30;;
75496;SDS011;64074;47.540;19.072;2023-05-07T18:00:13;2.60;;;2.00;;
75496;SDS011;64074;47.540;19.072;2023-05-07T18:03:16;4.80;;;2.40;;
75496;SDS011;64074;47.540;19.072;2023-05-07T18:06:21;3.30;;;2.33;;
75496;SDS011;64074;47.540;19.072;2023-05-07T18:09:29;2.30;;;2.10;;
75496;SDS011;64074;47.540;19.072;2023-05-07T18:12:43;5.63;;;2.80;;
75496;SDS011;64074;47.540;19.072;2023-05-07T18:15:58;3.42;;;2.40;;
75496;SDS011;64074;47.540;19.072;2023-05-07T18:19:21;3.63;;;2.97;;
75496;SDS011;64074;47.540;19.072;2023-05-07T18:22:26;4.37;;;3.00;;
75496;SDS011;64074;47.540;19.072;2023-05-07T18:25:36;3.35;;;3.05;;
75496;SDS011;64074;47.540;19.072;2023-05-07T18:28:41;4.00;;;3.30;;
75496;SDS011;64074;47.540;19.072;2023-05-07T18:31:53;4.78;;;2.85;;
75496;SDS011;64074;47.540;19.072;2023-05-07T18:35:03;7.28;;;3.42;;
75496;SDS011;64074;47.540;19.072;2023-05-07T18:38:11;6.13;;;4.07;;
75496;SDS011;64074;47.540;19.072;2023-05-07T18:41:21;5.85;;;4.18;;
75496;SDS011;64074;47.540;19.072;2023-05-07T18:44:31;6.25;;;3.60;;
75496;SDS011;64074;47.540;19.072;2023-05-07T18:48:03;4.57;;;3.53;;
75496;SDS011;64074;47.540;19.072;2023-05-07T18:51:27;3.45;;;3.05;;
75496;SDS011;64074;47.540;19.072;2023-05-07T18:54:48;7.40;;;3.53;;
75496;SDS011;64074;47.540;19.072;2023-05-07T18:58:11;5.05;;;3.30;;
75496;SDS011;64074;47.540;19.072;2023-05-07T19:01:15;5.60;;;3.42;;
75496;SDS011;64074;47.540;19.072;2023-05-07T19:04:24;5.22;;;3.70;;
75496;SDS011;64074;47.540;19.072;2023-05-07T19:07:28;4.82;;;3.65;;
75496;SDS011;64074;47.540;19.072;2023-05-07T19:10:32;7.40;;;4.30;;
75496;SDS011;64074;47.540;19.072;2023-05-07T19:13:40;8.60;;;4.75;;
75496;SDS011;64074;47.540;19.072;2023-05-07T19:16:45;7.88;;;5.50;;